Historyczne dane pomiarowe

Dodano dane terminowe – wersja testowa.

Dane z okresu 1951-2019

Wersja bazy: 1.34 [2019-03-16, lista zmian], aktualizacja planowana na 2019-04-15

Dane meteo z obszaru Polski uzyskane na podstawie danych udostępnionych przez Instytut Meteorologii i Gospodarki Wodnej – Państwowy Instytut Badawczy.

 

Wybierz Datę:    

       

TemperaturaWilgotnośćWiatrCiśnienieOpadyŚniegCzas trwania zjawisk
 Stacja t tx tn tng RH VA  wxwx mslp ppp RRR   cm mm wxwxwxwxwxwxwx
1987-08-14 13.7 19.5 7.5 1.5 83.3- 7.3 0.7---- 2.4------------
1987-08-13 12.3 17.4 7.9 3.4 88.5- 8.0 1.3---- 2.4------------
1987-08-12 13.5 18.2 9.9 5.5 77.8- 3.7 4.3---- 0.5------------
1987-08-11 12.4 16.4 10.9 6.9 90.5- 8.0 3.0---- 2.7------------
1987-08-10 14.6 18.2 13.4 8.6 89.8- 8.0 2.3---- 15.6------------
1987-08-09 16.3 22.0 11.4 7.1 81.3- 6.0 1.3---- 15.2------------
1987-08-08 14.9 21.5 7.4 5.8 67.8- 5.3 1.7---- 0.7------------
1987-08-07 13.8 18.9 8.4 3.6 72.3- 4.3 2.3---- 0.8------------
1987-08-06 12.6 16.7 9.7 5.6 80.8- 7.3 3.3---- 0.0------------
1987-08-05 12.7 17.8 7.8 1.5 74.3- 5.7 2.0---- 0.0------------
1987-08-04 13.0 16.3 9.1 3.5 92.0- 5.3 3.0---- 1.2------------
1987-08-03 13.9 17.8 9.3 2.8 74.5- 6.0 1.7---- 2.0------------
1987-08-02 15.2 18.7 10.3 5.6 73.8- 4.3 3.0---- 0.0------------
1987-08-01 15.1 19.5 11.8 6.6 86.3- 6.3 3.0---- 3.0------------
1987-07-31 14.5 19.8 13.4 6.7 92.3- 7.0 1.7---- 9.2------------
1987-07-30 17.6 23.0 10.7 4.5 70.5- 7.0 1.3---- 5.8------------
1987-07-29 14.5 19.2 11.1 6.5 75.5- 6.3 2.0---- 0.0------------
1987-07-28 14.7 19.2 11.4 6.2 77.0- 7.0 3.3---- 0.4------------
1987-07-27 11.7 16.3 7.3 2.4 78.8- 7.3 2.3---- 2.7------------
1987-07-26 14.7 17.0 11.4 5.0 80.5- 5.3 2.0---- 0.0------------
1987-07-25 17.3 21.8 14.4 9.5 82.3- 7.0 1.0---- 0.2------------
1987-07-24 20.4 25.5 15.7 10.5 74.8- 6.7 2.3---- 0.0------------
1987-07-23 20.7 26.7 15.8 14.6 80.0- 2.7 0.7---- 0.0------------
1987-07-22 20.1 25.0 14.7 10.1 83.8- 2.7 1.3---- 0.0------------
1987-07-21 20.1 25.0 10.9 5.7 71.0- 4.0 1.0---- 0.0------------
1987-07-20 17.0 19.6 16.4 12.1 93.0- 8.0 1.7---- 0.3------------
1987-07-19 19.5 23.4 15.2 11.3 88.5- 8.0 1.0---- 23.0------------
1987-07-18 20.3 24.7 16.8 7.0 85.3- 6.7 1.3---- 0.0------------
1987-07-17 19.4 23.8 12.9 7.1 74.8- 6.7 2.7---- 1.5------------
1987-07-16 17.7 23.1 9.9 6.1 70.5- 5.3 1.0---- 0.0------------
1987-07-15 15.6 21.9 6.4 1.0 68.3- 1.0 1.0---- 0.0------------
1987-07-14 15.6 20.8 10.4 5.6 80.8- 4.0 2.7---- 0.0------------
1987-07-13 16.5 19.8 11.6 7.2 81.0- 5.7 5.0---- 0.0------------
1987-07-12 16.7 19.6 14.6 10.8 92.8- 7.7 2.0---- 13.6------------
1987-07-11 14.8 19.4 9.6 9.4 90.8- 8.0 2.3---- 19.5------------
1987-07-10 14.3 18.2 10.3 5.6 74.8- 6.3 6.0---- 0.9------------
1987-07-09 17.2 21.8 14.9 12.1 83.8- 8.0 2.7---- 0.1------------
1987-07-08 21.9 28.5 15.3 7.1 70.5- 2.3 2.3---- 7.1------------
1987-07-07 21.1 28.3 10.9 5.0 62.3- 0.0 1.0---- 0.0------------
1987-07-06 18.5 23.7 8.9 3.5 68.5- 0.3 1.3---- 0.0------------
1987-07-05 17.7 22.1 9.6 5.6 72.3- 1.7 3.0---- 0.0------------
1987-07-04 17.3 21.2 11.4 6.3 73.8- 1.7 2.7---- 0.0------------
1987-07-03 18.3 22.7 11.4 7.0 66.5- 3.3 1.0---- 0.0------------
1987-07-02 19.4 23.0 15.9 12.5 72.3- 5.0 2.7---- 0.0------------
1987-07-01 24.8 29.9 19.4 12.2 79.0- 3.0 1.7---- 17.8------------
1987-06-30 24.2 28.6 18.9 14.0 79.5- 2.0 0.3---- 0.0------------
1987-06-29 16.8 22.8 8.4 2.8 87.5- 6.0 2.0---- 1.0------------
1987-06-28 16.4 20.5 13.4 13.6 86.8- 5.7 1.0---- 0.0------------
1987-06-27 18.1 21.1 15.7 10.5 79.8- 4.0 1.3---- 0.1------------
1987-06-26 16.3 21.8 11.4 6.9 77.5- 4.3 2.0---- 2.3------------
1987-06-25 12.9 17.2 10.1 6.9 87.8- 7.0 1.7---- 5.6------------
1987-06-24 16.3 19.6 12.4 7.6 69.0- 6.7 2.7---- 12.1------------
1987-06-23 14.0 18.4 11.9 8.4 93.5- 8.0 1.3---- 4.8------------
1987-06-22 18.6 24.7 10.4 5.4 73.3- 2.0 1.3---- 0.0------------
1987-06-21 18.2 23.2 10.6 4.0 65.5- 1.3 1.7---- 0.0------------
1987-06-20 16.4 22.5 9.4 4.4 66.8- 0.0 1.3---- 0.0------------
1987-06-19 11.4 16.5 7.3 2.5 81.5- 6.0 1.7---- 2.1------------
1987-06-18 12.7 17.8 6.4 0.0 70.3- 3.7 2.0---- 3.2------------
1987-06-17 12.0 14.4 10.8 7.0 76.5- 5.7 2.3---- 0.0------------
1987-06-16 13.0 23.4 10.6 7.3 94.5- 8.0 3.7---- 2.2------------
459.7 ms

 

Źródłem pochodzenia danych jest Instytut Meteorologii i Gospodarki Wodnej – Państwowy Instytut Badawczy. Dane Instytutu Meteorologii i Gospodarki Wodnej – Państwowego Instytutu Badawczego zostały przetworzone.

Dane źródłowe można odnaleźć na stronie https://dane.imgw.pl